Domov               UVHVVR             MKGP            O straneh              
ZDRAVSTVENO VARSTVO RASTLIN
  MREŽA AGROMET. POSTAJ
 ► PROGNOSTIČNA OBVESTILA
AGROMETEOROLOŠKI PODATKI -
ARSO
OBVLADOVANJE TVEGANJ ZARADI
NEUGODNIH VREMENSKIH RAZMER
  ► NARAVNE NESREČE
  ► SUŠA/MOČA
  ► NAMAKANJE
  ► ŽLED (gozdarstvo)
KARTOGRAFSKI PRIKAZI
SPLETNE POVEZAVE
PROJEKTI IN PUBLIKACIJE

AGROMETEOROLOŠKA MREŽA: VREMENSKE POSTAJE IN FENOLOŠKA OPAZOVANJA

Pregled podatkov za lokacijo Črnomelj, meteorološka postaja 859096

Pregled senzorjev na lokaciji

ID Ime Zadnja
vrednost
Datum
zadnje
spremembe
Tip
senzorja
4080 Temperatura 2 m ( °C) 22,76 °C 19.10.2017 16:15 50YA
4081 Relativna vlaga 2 m (% RH) 28,79 % RH 19.10.2017 16:15 50YA
4082 Omočenost lista (U) 0 U 19.10.2017 16:14 A730WET
4083 Padavine 0.2 mm (mm) 0 mm 19.10.2017 16:14 Rain-O-Matic

Pregled podatkov zadnjih 24 ur

Zap.
št.
Datum in čas Črnomelj
Omočenost
lista
Padavine
0.2
mm
Relativna
vlaga
2
m
Temperatura
2
m
0 19.10.2017 15:30 0 0 28,79 22,76
1 19.10.2017 15:00 0 0 28,62 23,2
2 19.10.2017 14:30 0 0 29,75 23,69
3 19.10.2017 14:00 0 0 27,68 24,51
4 19.10.2017 13:30 0 0 27,44 25,09
5 19.10.2017 13:00 0 0 27,81 25,25
6 19.10.2017 12:30 0 0 27,8 25,34
7 19.10.2017 12:00 0 0 29,36 24,85
8 19.10.2017 11:30 0 0 31,14 24,38
9 19.10.2017 11:00 0 0 31,45 24,06
10 19.10.2017 10:30 0 0 34,32 23,24
11 19.10.2017 10:00 0 0 40,11 21,89
12 19.10.2017 09:30 0 0 44,52 20,61
13 19.10.2017 09:00 0 0 48,7 19,18
14 19.10.2017 08:30 0 0 50,56 18,39
15 19.10.2017 08:00 0 0 54,75 17,13
16 19.10.2017 07:30 0 0 68,4 14,35
17 19.10.2017 07:00 0 0 74,35 11,54
18 19.10.2017 06:30 0 0 76,27 10,57
19 19.10.2017 06:00 0 0 66,67 12,12
20 19.10.2017 05:30 0 0 63,91 12,47
21 19.10.2017 05:00 0 0 63,03 12,53
22 19.10.2017 04:30 0 0 64,16 12,27
23 19.10.2017 04:00 0 0 63,88 12,15
24 19.10.2017 03:30 0 0 60,02 12,88
25 19.10.2017 03:00 0 0 61,11 12,6
26 19.10.2017 02:30 0 0 66,67 11,55
27 19.10.2017 02:00 0 0 71,57 10,58
28 19.10.2017 01:30 0 0 69,44 10,88
29 19.10.2017 01:00 0 0 69,32 10,69
30 19.10.2017 00:30 0 0 69,48 10,77
31 19.10.2017 00:00 0 0 66,36 11,23
32 18.10.2017 23:30 0 0 66,97 11,36
33 18.10.2017 23:00 0 0 64,44 11,91
34 18.10.2017 22:30 0 0 68,69 11,6
35 18.10.2017 22:00 0 0 71,47 11,19
36 18.10.2017 21:30 0 0 72,48 11,24
37 18.10.2017 21:00 0 0 71,71 11,39
38 18.10.2017 20:30 0 0 71,81 11,75
39 18.10.2017 20:00 0 0 69,94 12,27
40 18.10.2017 19:30 0 0 65,59 13,17
41 18.10.2017 19:00 0 0 68,24 12,92
42 18.10.2017 18:30 0 0 66 13,44
43 18.10.2017 18:00 0 0 61,62 14,45
44 18.10.2017 17:30 0 0 61,69 14,87
45 18.10.2017 17:00 0 0 47,74 17,85
46 18.10.2017 16:30 0 0 42,38 19,16
© 2011 Ministrstvo za kmetijstvo, gozdarstvo in prehrano. Vse pravice pridržane.